ALK182 VNKT-VCBI
Flight info
| Callsign | ALK182 |
|---|---|
| Flight time | N/A |
| Altitude | 25000 |
| Route | IGRIS1E LALBA G335 SEETA/N0370F240 G335 PPT W106 GGC/N0373F250 W106 RRC/N0449F390 J27 MALSU/N0449F380 J26 VVZ A465 SAGOR SAGOR1A |
| Aircraft | A20N/M-SDE2E3FGHIRWXY/LB1 |
Departure
| Time | 2026-05-07 06:41 |
|---|---|
| Airport | Tribhuvan International Airport (VNKT) |
Arrival
| Time | N/A |
|---|---|
| Airport | Bandaranaike International Colombo Airport (VCBI) |
| Time | Latitude | Longitude | Altitude | Speed | Heading |
|---|---|---|---|---|---|
| 2026-05-07 06:29 | 27.69988 | 85.35836 | 4397 ft | 0 kts | 292° |
| 2026-05-07 06:31 | 27.69983 | 85.35850 | 4397 ft | 10 kts | 292° |
| 2026-05-07 06:31 | 27.69953 | 85.35916 | 4397 ft | 10 kts | 331° |
| 2026-05-07 06:31 | 27.69928 | 85.35917 | 4397 ft | 0 kts | 26° |
| 2026-05-07 06:34 | 27.69929 | 85.35917 | 4397 ft | 1 kts | 26° |
| 2026-05-07 06:35 | 27.69947 | 85.35927 | 4397 ft | 5 kts | 24° |
| 2026-05-07 06:35 | 27.70000 | 85.35951 | 4397 ft | 11 kts | 21° |
| 2026-05-07 06:35 | 27.70085 | 85.35989 | 4397 ft | 15 kts | 21° |
| 2026-05-07 06:35 | 27.70176 | 85.36031 | 4397 ft | 12 kts | 23° |
| 2026-05-07 06:36 | 27.70253 | 85.36065 | 4397 ft | 12 kts | 22° |
| 2026-05-07 06:36 | 27.70337 | 85.36104 | 4397 ft | 14 kts | 22° |
| 2026-05-07 06:36 | 27.70431 | 85.36146 | 4398 ft | 15 kts | 21° |
| 2026-05-07 06:36 | 27.70528 | 85.36189 | 4398 ft | 12 kts | 22° |
| 2026-05-07 06:37 | 27.70554 | 85.36205 | 4398 ft | 0 kts | 37° |
| 2026-05-07 06:37 | 27.70556 | 85.36207 | 4398 ft | 1 kts | 38° |
| 2026-05-07 06:37 | 27.70566 | 85.36221 | 4398 ft | 4 kts | 53° |
| 2026-05-07 06:38 | 27.70586 | 85.36270 | 4398 ft | 9 kts | 69° |
| 2026-05-07 06:38 | 27.70617 | 85.36345 | 4401 ft | 11 kts | 47° |
| 2026-05-07 06:38 | 27.70694 | 85.36388 | 4401 ft | 14 kts | 21° |
| 2026-05-07 06:38 | 27.70759 | 85.36415 | 4400 ft | 16 kts | 20° |
| 2026-05-07 06:39 | 27.70854 | 85.36497 | 4397 ft | 19 kts | 62° |
| 2026-05-07 06:39 | 27.70929 | 85.36512 | 4396 ft | 10 kts | 310° |
| 2026-05-07 06:39 | 27.70932 | 85.36484 | 4396 ft | 0 kts | 238° |
| 2026-05-07 06:39 | 27.70928 | 85.36481 | 4396 ft | 2 kts | 223° |
| 2026-05-07 06:40 | 27.70899 | 85.36470 | 4397 ft | 9 kts | 194° |
| 2026-05-07 06:40 | 27.70814 | 85.36439 | 4399 ft | 17 kts | 202° |
| 2026-05-07 06:40 | 27.70596 | 85.36341 | 4401 ft | 64 kts | 202° |
| 2026-05-07 06:40 | 27.69969 | 85.36055 | 4394 ft | 127 kts | 202° |
| 2026-05-07 06:41 | 27.68995 | 85.35614 | 4413 ft | 171 kts | 201° |
| 2026-05-07 06:41 | 27.67877 | 85.35076 | 4917 ft | 177 kts | 202° |
| 2026-05-07 06:41 | 27.66750 | 85.34515 | 5627 ft | 176 kts | 208° |
| 2026-05-07 06:41 | 27.65799 | 85.33675 | 6287 ft | 179 kts | 227° |
| 2026-05-07 06:42 | 27.65113 | 85.32409 | 6616 ft | 202 kts | 249° |
| 2026-05-07 06:42 | 27.64886 | 85.30771 | 6953 ft | 226 kts | 277° |
| 2026-05-07 06:42 | 27.65387 | 85.29031 | 7392 ft | 247 kts | 305° |
| 2026-05-07 06:42 | 27.66623 | 85.27582 | 7836 ft | 269 kts | 327° |
| 2026-05-07 06:43 | 27.68363 | 85.26755 | 8582 ft | 275 kts | 351° |
| 2026-05-07 06:43 | 27.70246 | 85.26764 | 9586 ft | 270 kts | 14° |
| 2026-05-07 06:43 | 27.71966 | 85.27592 | 10445 ft | 271 kts | 38° |
| 2026-05-07 06:43 | 27.73235 | 85.29157 | 11239 ft | 273 kts | 62° |
| 2026-05-07 06:44 | 27.74053 | 85.31097 | 12044 ft | 276 kts | 66° |
| 2026-05-07 06:44 | 27.74863 | 85.33083 | 12872 ft | 281 kts | 66° |
| 2026-05-07 06:44 | 27.75611 | 85.35130 | 13725 ft | 284 kts | 76° |
| 2026-05-07 06:44 | 27.75841 | 85.37343 | 14467 ft | 287 kts | 94° |
| 2026-05-07 06:45 | 27.75444 | 85.39561 | 15127 ft | 292 kts | 112° |
| 2026-05-07 06:45 | 27.74440 | 85.41559 | 15792 ft | 295 kts | 131° |
| 2026-05-07 06:45 | 27.72918 | 85.43119 | 16447 ft | 298 kts | 149° |
| 2026-05-07 06:45 | 27.71044 | 85.44132 | 17114 ft | 301 kts | 159° |
| 2026-05-07 06:46 | 27.69106 | 85.45103 | 17639 ft | 313 kts | 153° |
| 2026-05-07 06:46 | 27.67232 | 85.46515 | 17828 ft | 335 kts | 141° |
| 2026-05-07 06:46 | 27.65539 | 85.48441 | 18029 ft | 357 kts | 129° |
| 2026-05-07 06:46 | 27.64142 | 85.50846 | 18216 ft | 377 kts | 117° |
| 2026-05-07 06:47 | 27.63173 | 85.53666 | 18499 ft | 393 kts | 106° |
| 2026-05-07 06:47 | 27.62416 | 85.56589 | 19036 ft | 397 kts | 107° |
| 2026-05-07 06:47 | 27.61594 | 85.59643 | 19565 ft | 402 kts | 108° |
| 2026-05-07 06:47 | 27.60771 | 85.62679 | 20112 ft | 407 kts | 108° |
| 2026-05-07 06:48 | 27.59943 | 85.65745 | 20666 ft | 412 kts | 107° |
| 2026-05-07 06:48 | 27.59081 | 85.68846 | 21214 ft | 416 kts | 111° |
| 2026-05-07 06:48 | 27.57904 | 85.71834 | 21751 ft | 420 kts | 120° |
| 2026-05-07 06:48 | 27.56331 | 85.74627 | 22302 ft | 423 kts | 128° |
| 2026-05-07 06:49 | 27.54405 | 85.77139 | 22826 ft | 426 kts | 137° |
| 2026-05-07 06:49 | 27.52151 | 85.79315 | 23395 ft | 428 kts | 146° |
| 2026-05-07 06:49 | 27.49620 | 85.81090 | 23906 ft | 429 kts | 155° |
| 2026-05-07 06:49 | 27.46882 | 85.82425 | 24383 ft | 429 kts | 164° |
| 2026-05-07 06:50 | 27.43324 | 85.83426 | 24962 ft | 428 kts | 175° |
| 2026-05-07 06:50 | 27.40368 | 85.83691 | 25427 ft | 426 kts | 184° |
| 2026-05-07 06:50 | 27.37410 | 85.83525 | 25882 ft | 426 kts | 188° |
| 2026-05-07 06:50 | 27.34475 | 85.83298 | 26293 ft | 430 kts | 188° |
| 2026-05-07 06:51 | 27.31439 | 85.83074 | 26734 ft | 433 kts | 188° |
| 2026-05-07 06:51 | 27.28422 | 85.82865 | 27180 ft | 436 kts | 188° |
| 2026-05-07 06:51 | 27.25429 | 85.82666 | 27586 ft | 438 kts | 188° |
| 2026-05-07 06:51 | 27.22402 | 85.82467 | 27987 ft | 441 kts | 188° |
| 2026-05-07 06:52 | 27.19294 | 85.82262 | 28389 ft | 444 kts | 188° |
| 2026-05-07 06:52 | 27.16202 | 85.82057 | 28777 ft | 447 kts | 188° |
| 2026-05-07 06:52 | 27.14099 | 85.81919 | 29033 ft | 448 kts | 188° |
| 2026-05-07 06:52 | 27.09963 | 85.81605 | 29495 ft | 449 kts | 193° |
| 2026-05-07 06:53 | 27.06952 | 85.80808 | 29840 ft | 443 kts | 205° |
| 2026-05-07 06:53 | 27.04119 | 85.79468 | 30189 ft | 442 kts | 208° |
| 2026-05-07 06:53 | 27.01297 | 85.78083 | 30569 ft | 442 kts | 208° |
| 2026-05-07 06:53 | 26.99430 | 85.77166 | 30837 ft | 442 kts | 208° |
| 2026-05-07 06:54 | 26.95663 | 85.75319 | 31387 ft | 441 kts | 208° |
| 2026-05-07 06:54 | 26.93833 | 85.74424 | 31706 ft | 439 kts | 208° |
| 2026-05-07 06:54 | 26.91018 | 85.73047 | 32229 ft | 435 kts | 208° |
| 2026-05-07 06:54 | 26.88256 | 85.71698 | 32754 ft | 431 kts | 208° |
| 2026-05-07 06:55 | 26.85516 | 85.70361 | 33241 ft | 427 kts | 209° |
| 2026-05-07 06:55 | 26.82766 | 85.69018 | 33695 ft | 424 kts | 209° |
| 2026-05-07 06:55 | 26.80071 | 85.67702 | 34077 ft | 421 kts | 209° |
| 2026-05-07 06:55 | 26.77390 | 85.66394 | 34361 ft | 420 kts | 209° |
| 2026-05-07 06:56 | 26.74715 | 85.65089 | 34594 ft | 420 kts | 209° |
| 2026-05-07 06:56 | 26.72037 | 85.63784 | 34824 ft | 419 kts | 209° |
| 2026-05-07 06:56 | 26.69398 | 85.62499 | 35038 ft | 419 kts | 209° |
| 2026-05-07 06:56 | 26.66689 | 85.61180 | 35259 ft | 419 kts | 209° |
| 2026-05-07 06:57 | 26.64020 | 85.59882 | 35474 ft | 418 kts | 210° |
| 2026-05-07 06:57 | 26.61351 | 85.58585 | 35688 ft | 418 kts | 210° |
| 2026-05-07 06:57 | 26.58682 | 85.57289 | 35896 ft | 418 kts | 210° |
| 2026-05-07 06:57 | 26.56017 | 85.55996 | 36127 ft | 417 kts | 210° |
| 2026-05-07 06:58 | 26.53356 | 85.54705 | 36337 ft | 417 kts | 210° |
| 2026-05-07 06:58 | 26.50694 | 85.53413 | 36545 ft | 417 kts | 210° |
| 2026-05-07 06:58 | 26.48036 | 85.52125 | 36754 ft | 416 kts | 210° |
| 2026-05-07 06:58 | 26.45380 | 85.50838 | 36966 ft | 416 kts | 210° |
| 2026-05-07 06:59 | 26.42725 | 85.49551 | 37169 ft | 416 kts | 210° |
| 2026-05-07 06:59 | 26.40071 | 85.48266 | 37371 ft | 415 kts | 210° |
| 2026-05-07 06:59 | 26.37480 | 85.47012 | 37564 ft | 415 kts | 210° |
| 2026-05-07 06:59 | 26.34774 | 85.45703 | 37764 ft | 415 kts | 210° |
| 2026-05-07 07:00 | 26.32127 | 85.44424 | 37953 ft | 414 kts | 210° |
| 2026-05-07 07:00 | 26.29480 | 85.43146 | 38146 ft | 414 kts | 210° |
| 2026-05-07 07:00 | 26.26842 | 85.41873 | 38330 ft | 414 kts | 210° |
| 2026-05-07 07:00 | 26.24202 | 85.40599 | 38512 ft | 413 kts | 211° |
| 2026-05-07 07:01 | 26.21561 | 85.39325 | 38679 ft | 413 kts | 211° |
| 2026-05-07 07:01 | 26.18931 | 85.38054 | 38822 ft | 412 kts | 211° |
| 2026-05-07 07:01 | 26.16301 | 85.36781 | 38929 ft | 412 kts | 211° |
| 2026-05-07 07:01 | 26.13673 | 85.35513 | 38925 ft | 411 kts | 211° |
| 2026-05-07 07:02 | 26.08431 | 85.32990 | 38927 ft | 410 kts | 211° |
| 2026-05-07 07:02 | 26.03190 | 85.30469 | 38927 ft | 410 kts | 211° |
| 2026-05-07 07:03 | 25.97946 | 85.27950 | 38917 ft | 411 kts | 211° |
| 2026-05-07 07:03 | 25.92701 | 85.25432 | 38912 ft | 410 kts | 211° |
| 2026-05-07 07:04 | 25.87459 | 85.22918 | 38906 ft | 411 kts | 211° |
| 2026-05-07 07:04 | 25.82214 | 85.20405 | 38902 ft | 411 kts | 211° |
| 2026-05-07 07:05 | 25.76964 | 85.17892 | 38900 ft | 411 kts | 211° |
| 2026-05-07 07:05 | 25.71747 | 85.15398 | 38902 ft | 411 kts | 211° |
| 2026-05-07 07:06 | 25.66495 | 85.12889 | 38908 ft | 411 kts | 211° |
| 2026-05-07 07:06 | 25.61202 | 85.10455 | 38908 ft | 415 kts | 207° |
| 2026-05-07 07:07 | 25.55588 | 85.08727 | 38902 ft | 424 kts | 199° |
| 2026-05-07 07:07 | 25.49731 | 85.07674 | 38904 ft | 426 kts | 198° |
| 2026-05-07 07:08 | 25.43870 | 85.06638 | 38908 ft | 427 kts | 198° |
| 2026-05-07 07:08 | 25.38010 | 85.05595 | 38898 ft | 427 kts | 198° |
| 2026-05-07 07:09 | 25.32143 | 85.04553 | 38894 ft | 427 kts | 198° |
| 2026-05-07 07:09 | 25.26272 | 85.03513 | 38887 ft | 427 kts | 198° |
| 2026-05-07 07:10 | 25.20399 | 85.02474 | 38886 ft | 427 kts | 198° |
| 2026-05-07 07:10 | 25.14521 | 85.01434 | 38886 ft | 428 kts | 198° |
| 2026-05-07 07:11 | 25.08645 | 85.00398 | 38883 ft | 428 kts | 198° |
| 2026-05-07 07:11 | 25.02767 | 84.99355 | 38882 ft | 428 kts | 198° |
| 2026-05-07 07:12 | 24.96888 | 84.98310 | 38884 ft | 428 kts | 198° |
| 2026-05-07 07:12 | 24.91023 | 84.97234 | 38882 ft | 427 kts | 199° |
| 2026-05-07 07:13 | 24.85163 | 84.96156 | 38880 ft | 427 kts | 199° |
| 2026-05-07 07:13 | 24.79281 | 84.95164 | 38878 ft | 430 kts | 195° |
| 2026-05-07 07:14 | 24.73215 | 84.95041 | 38874 ft | 443 kts | 185° |
| 2026-05-07 07:14 | 24.67058 | 84.96146 | 38875 ft | 456 kts | 174° |
| 2026-05-07 07:15 | 24.60913 | 84.97901 | 38877 ft | 456 kts | 174° |
| 2026-05-07 07:15 | 24.54802 | 84.99567 | 38885 ft | 456 kts | 175° |
| 2026-05-07 07:16 | 24.48640 | 85.01219 | 38894 ft | 456 kts | 175° |
| 2026-05-07 07:16 | 24.42475 | 85.02871 | 38903 ft | 456 kts | 175° |
| 2026-05-07 07:17 | 24.36308 | 85.04523 | 38902 ft | 455 kts | 175° |
| 2026-05-07 07:17 | 24.30157 | 85.06167 | 38910 ft | 455 kts | 175° |
| 2026-05-07 07:18 | 24.24010 | 85.07808 | 38913 ft | 455 kts | 175° |
| 2026-05-07 07:18 | 24.17866 | 85.09449 | 38917 ft | 455 kts | 175° |
| 2026-05-07 07:19 | 24.11713 | 85.11091 | 38924 ft | 455 kts | 175° |
| 2026-05-07 07:19 | 24.05556 | 85.12738 | 38925 ft | 455 kts | 175° |
| 2026-05-07 07:20 | 23.99400 | 85.14380 | 38934 ft | 455 kts | 175° |
| 2026-05-07 07:20 | 23.93246 | 85.16020 | 38941 ft | 456 kts | 175° |
| 2026-05-07 07:21 | 23.87088 | 85.17662 | 38942 ft | 455 kts | 175° |
| 2026-05-07 07:21 | 23.80928 | 85.19274 | 38943 ft | 455 kts | 175° |
| 2026-05-07 07:22 | 23.74772 | 85.20902 | 38950 ft | 455 kts | 175° |
| 2026-05-07 07:22 | 23.68613 | 85.22539 | 38957 ft | 455 kts | 175° |
| 2026-05-07 07:23 | 23.62460 | 85.24182 | 38969 ft | 455 kts | 175° |
| 2026-05-07 07:23 | 23.56309 | 85.25849 | 38977 ft | 456 kts | 174° |
| 2026-05-07 07:24 | 23.50163 | 85.27512 | 38989 ft | 455 kts | 174° |
| 2026-05-07 07:24 | 23.44022 | 85.29146 | 38998 ft | 454 kts | 174° |
| 2026-05-07 07:25 | 23.34820 | 85.31580 | 38995 ft | 453 kts | 174° |
| 2026-05-07 07:26 | 23.28675 | 85.32768 | 38995 ft | 443 kts | 182° |
| 2026-05-07 07:26 | 23.22555 | 85.33167 | 38991 ft | 440 kts | 184° |
| 2026-05-07 07:27 | 23.16437 | 85.33548 | 38983 ft | 440 kts | 184° |
| 2026-05-07 07:27 | 23.10331 | 85.33936 | 38977 ft | 440 kts | 184° |
| 2026-05-07 07:28 | 23.04218 | 85.34325 | 38970 ft | 440 kts | 184° |
| 2026-05-07 07:28 | 22.98110 | 85.34713 | 38955 ft | 439 kts | 184° |
| 2026-05-07 07:29 | 22.92005 | 85.35101 | 38949 ft | 439 kts | 184° |
| 2026-05-07 07:29 | 22.85943 | 85.35486 | 38946 ft | 439 kts | 184° |
| 2026-05-07 07:30 | 22.79844 | 85.35874 | 38942 ft | 439 kts | 184° |
| 2026-05-07 07:30 | 22.73744 | 85.36261 | 38943 ft | 439 kts | 184° |
| 2026-05-07 07:31 | 22.67641 | 85.36649 | 38935 ft | 439 kts | 184° |
| 2026-05-07 07:31 | 22.61533 | 85.37036 | 38938 ft | 440 kts | 184° |
| 2026-05-07 07:32 | 22.55423 | 85.37423 | 38932 ft | 440 kts | 184° |
| 2026-05-07 07:32 | 22.49307 | 85.37811 | 38937 ft | 440 kts | 184° |
| 2026-05-07 07:33 | 22.43191 | 85.38199 | 38931 ft | 441 kts | 184° |
| 2026-05-07 07:33 | 22.37065 | 85.38585 | 38935 ft | 441 kts | 184° |
| 2026-05-07 07:34 | 22.30943 | 85.38973 | 38926 ft | 441 kts | 184° |
| 2026-05-07 07:34 | 22.24823 | 85.39359 | 38925 ft | 440 kts | 184° |
| 2026-05-07 07:35 | 22.18709 | 85.39745 | 38918 ft | 440 kts | 184° |
| 2026-05-07 07:35 | 22.12594 | 85.40132 | 38920 ft | 440 kts | 184° |
| 2026-05-07 07:36 | 22.06476 | 85.40519 | 38916 ft | 440 kts | 184° |
| 2026-05-07 07:36 | 22.00357 | 85.40905 | 38913 ft | 440 kts | 184° |
| 2026-05-07 07:37 | 21.94237 | 85.41291 | 38904 ft | 441 kts | 184° |
| 2026-05-07 07:37 | 21.89154 | 85.41611 | 38905 ft | 441 kts | 183° |
| 2026-05-07 07:38 | 21.82028 | 85.42068 | 38900 ft | 441 kts | 184° |
| 2026-05-07 07:38 | 21.75892 | 85.42449 | 38904 ft | 442 kts | 184° |
| 2026-05-07 07:39 | 21.69743 | 85.42832 | 38899 ft | 443 kts | 184° |
| 2026-05-07 07:39 | 21.64581 | 85.43155 | 38902 ft | 444 kts | 184° |
| 2026-05-07 07:40 | 21.58408 | 85.43542 | 38897 ft | 445 kts | 183° |
| 2026-05-07 07:40 | 21.52232 | 85.43930 | 38897 ft | 445 kts | 183° |
| 2026-05-07 07:41 | 21.46050 | 85.44317 | 38891 ft | 445 kts | 183° |
| 2026-05-07 07:41 | 21.39863 | 85.44705 | 38886 ft | 445 kts | 183° |
| 2026-05-07 07:42 | 21.33680 | 85.45099 | 38883 ft | 446 kts | 183° |
| 2026-05-07 07:42 | 21.27528 | 85.45490 | 38876 ft | 446 kts | 183° |
| 2026-05-07 07:43 | 21.21340 | 85.45878 | 38870 ft | 445 kts | 183° |
| 2026-05-07 07:43 | 21.15156 | 85.46263 | 38863 ft | 445 kts | 183° |
| 2026-05-07 07:44 | 21.08967 | 85.46648 | 38859 ft | 445 kts | 183° |
| 2026-05-07 07:44 | 21.02784 | 85.47029 | 38855 ft | 445 kts | 183° |
| 2026-05-07 07:45 | 20.96598 | 85.47402 | 38850 ft | 445 kts | 183° |